Cooktown, Australia
Current Conditions -  °F | °C
As of 8:30 AM on Tuesday 25 Nov 2014 (Local Time) from YBCS Reporting Station
Few Clouds Few Clouds  
Wind Chill: 84°   Ceiling: Unl
Heat Index: 90°   Visibility: 6mi
Dew Point: 72°   Wind: 10mph
Humidity: 66%   Direction: 140°SE
Pressure: 29.88"   Gusts: NA
Location:  15.47°S, 145.25°E
Report Text: YBCS 242230Z 14009KT 9999 FEW028 29/22 Q1012
Loading
Personal Weather Stations






























Interactive Weather Map New forecast layout! Learn more

10-Day Weather Forecast

Advertisements
Track Severe Weather on mobile